createdAt,value
2023-04-22T00:05:20.976Z,25.2
2023-04-22T00:15:21.537Z,24.8
2023-04-22T00:25:21.312Z,25.1
2023-04-22T00:35:22.833Z,27.6
2023-04-22T00:45:23.691Z,27.7
2023-04-22T00:55:23.263Z,25.3
2023-04-22T01:05:25.740Z,26.6
2023-04-22T01:15:25.002Z,24.9
2023-04-22T01:25:25.023Z,24.9
2023-04-22T01:35:24.696Z,24.9
2023-04-22T01:45:25.126Z,24.8
2023-04-22T01:55:25.943Z,24.5
2023-04-22T02:05:25.238Z,25
2023-04-22T02:15:25.577Z,24.9
2023-04-22T02:25:26.847Z,24.7
2023-04-22T02:35:26.714Z,25.3
2023-04-22T02:45:26.304Z,24.8
2023-04-22T02:55:26.878Z,24.6
2023-04-22T03:05:08.377Z,25
2023-04-22T03:15:09.223Z,26.7
2023-04-22T03:25:09.995Z,24.9
2023-04-22T03:35:10.060Z,24.6
2023-04-22T03:45:10.875Z,28.5
2023-04-22T03:55:11.255Z,25
2023-04-22T04:05:14.887Z,30.2
2023-04-22T04:15:26.230Z,37.3
2023-04-22T04:25:42.291Z,37.1
2023-04-22T04:35:58.271Z,36.2
2023-04-22T04:46:14.029Z,36.3
2023-04-22T04:56:30.379Z,36.7
2023-04-22T05:06:45.652Z,38
2023-04-22T05:17:01.065Z,37.4
2023-04-22T05:27:16.123Z,37.1
2023-04-22T05:37:33.299Z,37.5
2023-04-22T05:47:48.633Z,37.9
2023-04-22T05:58:04.436Z,36.1
2023-04-22T06:08:21.505Z,37.8
2023-04-22T06:18:38.642Z,37.2
2023-04-22T06:28:55.609Z,38.3
2023-04-22T06:39:12.811Z,37.4
2023-04-22T06:49:29.880Z,38.7
2023-04-22T06:59:48.398Z,38.1
2023-04-22T07:10:06.165Z,38.3
2023-04-22T07:20:25.757Z,37.9
2023-04-22T07:30:41.065Z,38.1
2023-04-22T07:40:56.161Z,38.9
2023-04-22T07:51:11.282Z,39.4
2023-04-22T08:01:26.355Z,39.6
2023-04-22T08:11:41.866Z,38
2023-04-22T08:22:02.221Z,39.4
2023-04-22T08:32:19.808Z,37.6
2023-04-22T08:42:35.091Z,40.4
2023-04-22T08:52:52.432Z,39.4
2023-04-22T09:05:16.707Z,39
2023-04-22T09:15:36.587Z,36.9
2023-04-22T09:25:53.240Z,39.3
2023-04-22T09:36:13.702Z,39.2
2023-04-22T09:46:34.109Z,38.6
2023-04-22T09:56:54.632Z,39.3
2023-04-22T10:07:15.789Z,39.4
2023-04-22T10:17:37.010Z,39.3
2023-04-22T10:27:58.385Z,38.8
2023-04-22T10:38:19.536Z,38.6
2023-04-22T10:48:40.612Z,39.2
2023-04-22T10:59:01.609Z,38.9
2023-04-22T11:09:21.108Z,41.1
2023-04-22T11:19:40.394Z,39.1
2023-04-22T11:29:57.155Z,31.6
2023-04-22T11:40:21.313Z,36.1
2023-04-22T11:50:25.767Z,38.7
2023-04-22T12:00:41.356Z,38.4
2023-04-22T12:10:56.051Z,38.6
2023-04-22T12:21:11.416Z,37.6
2023-04-22T12:31:24.761Z,28.8
2023-04-22T12:41:37.672Z,32.4
2023-04-22T12:51:47.683Z,35.1
2023-04-22T13:01:57.991Z,30.7
2023-04-22T13:12:04.827Z,27
2023-04-22T13:22:08.548Z,29.7
2023-04-22T13:32:15.110Z,29.2
2023-04-22T13:42:20.207Z,34.2
2023-04-22T13:52:29.264Z,33.9
2023-04-22T14:02:37.089Z,25.1
2023-04-22T14:12:42.620Z,30.6
2023-04-22T14:22:52.672Z,36.6
2023-04-22T14:32:55.064Z,28.5
2023-04-22T14:42:56.188Z,28.7
2023-04-22T14:52:56.527Z,25.8
2023-04-22T15:05:07.851Z,25.8
2023-04-22T15:15:11.409Z,30.4
2023-04-22T15:25:16.098Z,29.4
2023-04-22T15:35:16.416Z,25.9
2023-04-22T15:45:16.638Z,25.8
2023-04-22T15:55:15.743Z,25.3
2023-04-22T16:05:15.900Z,24.9
2023-04-22T16:15:17.099Z,28.9
2023-04-22T16:25:17.588Z,25
2023-04-22T16:35:18.345Z,26.3
2023-04-22T16:45:20.490Z,28.3
2023-04-22T16:55:22.810Z,28.6
2023-04-22T17:05:23.271Z,26.3
2023-04-22T17:15:25.781Z,28
2023-04-22T17:25:26.112Z,28
2023-04-22T17:35:26.531Z,25.6
2023-04-22T17:45:27.754Z,28.1
2023-04-22T17:55:29.886Z,27.9
2023-04-22T18:05:31.436Z,25.8
2023-04-22T18:15:31.784Z,28.3
2023-04-22T18:25:32.073Z,25.6
2023-04-22T18:35:33.647Z,27.6
2023-04-22T18:45:35.249Z,26.1
2023-04-22T18:55:35.401Z,25.7
2023-04-22T19:05:35.692Z,25.6
2023-04-22T19:15:36.153Z,28.4
2023-04-22T19:25:36.123Z,28.4
2023-04-22T19:35:35.872Z,25.4
2023-04-22T19:45:35.832Z,28.3
2023-04-22T19:55:36.693Z,25.3
2023-04-22T20:05:36.392Z,25.6
2023-04-22T20:15:36.385Z,26.2
2023-04-22T20:25:36.777Z,25.8
2023-04-22T20:35:36.509Z,25.7
2023-04-22T20:45:36.260Z,25.8
2023-04-22T20:55:37.386Z,28.3
2023-04-22T21:05:06.583Z,25.7
2023-04-22T21:15:06.588Z,26
2023-04-22T21:25:08.068Z,27.8
2023-04-22T21:35:08.915Z,28.3
2023-04-22T21:45:08.976Z,25.5
2023-04-22T21:55:08.883Z,25.8
2023-04-22T22:05:09.305Z,25.6
2023-04-22T22:15:10.407Z,25.6
2023-04-22T22:25:12.410Z,28.7
2023-04-22T22:35:13.888Z,25.4
2023-04-22T22:45:15.986Z,28.2
2023-04-22T22:55:17.748Z,25.6
2023-04-22T23:05:18.665Z,25.1
2023-04-22T23:15:18.512Z,25.9
2023-04-22T23:25:19.564Z,25.3
2023-04-22T23:35:19.516Z,27.6
2023-04-22T23:45:19.658Z,25.2
2023-04-22T23:55:19.685Z,25.6
